sensor_id;sensor_type;location;lat;lon;timestamp;pressure;altitude;pressure_sealevel;temperature;humidity
63351;BME280;64988;51.058;17.040;2023-03-22T00:00:35;99954.50;;;12.73;65.62
63351;BME280;64988;51.058;17.040;2023-03-22T00:06:03;99951.34;;;12.87;65.12
63351;BME280;64988;51.058;17.040;2023-03-22T00:11:30;99941.38;;;12.78;65.12
63351;BME280;64988;51.058;17.040;2023-03-22T00:16:57;99940.09;;;12.82;65.44
63351;BME280;64988;51.058;17.040;2023-03-22T00:22:24;99938.94;;;12.84;65.47
63351;BME280;64988;51.058;17.040;2023-03-22T00:27:51;99927.53;;;12.81;65.57
63351;BME280;64988;51.058;17.040;2023-03-22T00:33:20;99925.28;;;12.86;65.81
63351;BME280;64988;51.058;17.040;2023-03-22T00:38:47;99909.56;;;12.80;65.57
63351;BME280;64988;51.058;17.040;2023-03-22T00:44:14;99900.75;;;12.78;66.52
63351;BME280;64988;51.058;17.040;2023-03-22T00:49:43;99891.34;;;12.72;66.65
63351;BME280;64988;51.058;17.040;2023-03-22T00:55:11;99889.81;;;12.70;66.90
63351;BME280;64988;51.058;17.040;2023-03-22T01:00:38;99880.09;;;12.67;67.27
63351;BME280;64988;51.058;17.040;2023-03-22T01:06:07;99884.38;;;12.70;66.74
63351;BME280;64988;51.058;17.040;2023-03-22T01:11:34;99883.66;;;12.68;67.17
63351;BME280;64988;51.058;17.040;2023-03-22T01:17:03;99874.25;;;12.72;67.07
63351;BME280;64988;51.058;17.040;2023-03-22T01:22:30;99860.56;;;12.73;67.06
63351;BME280;64988;51.058;17.040;2023-03-22T01:27:58;99853.00;;;12.77;66.63
63351;BME280;64988;51.058;17.040;2023-03-22T01:33:25;99849.28;;;12.87;66.54
63351;BME280;64988;51.058;17.040;2023-03-22T01:38:53;99847.72;;;12.85;66.74
63351;BME280;64988;51.058;17.040;2023-03-22T01:44:21;99844.84;;;12.86;nan
63351;BME280;64988;51.058;17.040;2023-03-22T01:49:52;99834.72;;;12.98;66.28
63351;BME280;64988;51.058;17.040;2023-03-22T01:55:21;99842.56;;;12.91;66.45
63351;BME280;64988;51.058;17.040;2023-03-22T02:00:58;99835.09;;;13.03;66.53
63351;BME280;64988;51.058;17.040;2023-03-22T02:06:40;99834.53;;;12.99;66.74
63351;BME280;64988;51.058;17.040;2023-03-22T02:24:34;99829.47;;;12.87;67.63
63351;BME280;64988;51.058;17.040;2023-03-22T02:30:24;99827.22;;;12.82;67.58
63351;BME280;64988;51.058;17.040;2023-03-22T02:36:17;99823.78;;;12.80;68.05
63351;BME280;64988;51.058;17.040;2023-03-22T02:53:19;99822.88;;;12.89;67.46
63351;BME280;64988;51.058;17.040;2023-03-22T02:58:52;99822.88;;;12.89;67.44
63351;BME280;64988;51.058;17.040;2023-03-22T03:04:27;99812.50;;;12.85;67.39
63351;BME280;64988;51.058;17.040;2023-03-22T03:09:57;99823.34;;;12.85;67.77
63351;BME280;64988;51.058;17.040;2023-03-22T03:15:27;99817.34;;;12.91;67.72
63351;BME280;64988;51.058;17.040;2023-03-22T03:27:03;99829.88;;;12.92;67.75
63351;BME280;64988;51.058;17.040;2023-03-22T03:32:36;99840.81;;;13.00;66.92
63351;BME280;64988;51.058;17.040;2023-03-22T03:38:11;99853.22;;;13.12;66.67
63351;BME280;64988;51.058;17.040;2023-03-22T03:43:41;99850.47;;;13.22;66.54
63351;BME280;64988;51.058;17.040;2023-03-22T03:49:10;99853.34;;;13.20;66.47
63351;BME280;64988;51.058;17.040;2023-03-22T03:54:39;99868.44;;;13.23;66.44
63351;BME280;64988;51.058;17.040;2023-03-22T04:00:13;99857.31;;;13.26;66.58
63351;BME280;64988;51.058;17.040;2023-03-22T04:06:03;99860.75;;;13.28;66.12
63351;BME280;64988;51.058;17.040;2023-03-22T04:11:35;99865.31;;;13.27;66.36
63351;BME280;64988;51.058;17.040;2023-03-22T04:17:03;99855.63;;;13.25;66.17
63351;BME280;64988;51.058;17.040;2023-03-22T04:22:30;99851.34;;;13.22;66.14
63351;BME280;64988;51.058;17.040;2023-03-22T04:28:01;99853.66;;;13.07;66.29
63351;BME280;64988;51.058;17.040;2023-03-22T04:33:33;99848.38;;;12.96;66.29
63351;BME280;64988;51.058;17.040;2023-03-22T04:39:24;99841.56;;;12.83;66.60
63351;BME280;64988;51.058;17.040;2023-03-22T04:45:00;99836.47;;;12.70;66.71
63351;BME280;64988;51.058;17.040;2023-03-22T04:50:30;99833.22;;;12.57;67.65
63351;BME280;64988;51.058;17.040;2023-03-22T04:56:01;99827.53;;;12.41;67.87
63351;BME280;64988;51.058;17.040;2023-03-22T05:01:32;99812.75;;;12.35;68.32
63351;BME280;64988;51.058;17.040;2023-03-22T05:07:10;99814.59;;;12.25;68.16
63351;BME280;64988;51.058;17.040;2023-03-22T05:12:46;99820.16;;;12.33;68.45
63351;BME280;64988;51.058;17.040;2023-03-22T05:18:23;99822.13;;;12.41;68.18
63351;BME280;64988;51.058;17.040;2023-03-22T05:23:57;99821.88;;;12.44;68.19
63351;BME280;64988;51.058;17.040;2023-03-22T05:29:26;99820.25;;;12.51;68.25
63351;BME280;64988;51.058;17.040;2023-03-22T05:35:14;99831.34;;;12.67;67.54
63351;BME280;64988;51.058;17.040;2023-03-22T05:40:46;99836.63;;;12.78;67.81
63351;BME280;64988;51.058;17.040;2023-03-22T05:46:41;99840.41;;;13.04;67.18
63351;BME280;64988;51.058;17.040;2023-03-22T05:52:50;99835.28;;;13.38;67.05
63351;BME280;64988;51.058;17.040;2023-03-22T05:58:42;99841.47;;;13.58;66.67
63351;BME280;64988;51.058;17.040;2023-03-22T06:04:13;99829.41;;;13.70;66.11
63351;BME280;64988;51.058;17.040;2023-03-22T06:10:03;99834.41;;;13.92;65.19
63351;BME280;64988;51.058;17.040;2023-03-22T06:15:31;99841.69;;;14.09;64.73
63351;BME280;64988;51.058;17.040;2023-03-22T06:21:05;99827.22;;;14.36;64.18
63351;BME280;64988;51.058;17.040;2023-03-22T06:26:32;99839.28;;;14.77;62.68
63351;BME280;64988;51.058;17.040;2023-03-22T06:32:01;99835.31;;;15.23;61.54
63351;BME280;64988;51.058;17.040;2023-03-22T06:37:30;99828.13;;;15.90;59.02
63351;BME280;64988;51.058;17.040;2023-03-22T06:43:00;99834.56;;;18.88;52.37
63351;BME280;64988;51.058;17.040;2023-03-22T06:48:33;99832.41;;;22.96;40.67
63351;BME280;64988;51.058;17.040;2023-03-22T06:54:04;99849.16;;;25.12;36.17
63351;BME280;64988;51.058;17.040;2023-03-22T06:59:33;99845.31;;;25.38;35.13
63351;BME280;64988;51.058;17.040;2023-03-22T07:05:01;99856.06;;;25.71;33.57
63351;BME280;64988;51.058;17.040;2023-03-22T07:10:29;99856.41;;;25.31;34.47
63351;BME280;64988;51.058;17.040;2023-03-22T07:15:59;99849.91;;;25.44;34.38
63351;BME280;64988;51.058;17.040;2023-03-22T07:21:37;99850.53;;;25.89;33.23
63351;BME280;64988;51.058;17.040;2023-03-22T07:27:08;99848.66;;;24.97;34.85
63351;BME280;64988;51.058;17.040;2023-03-22T07:32:40;99841.03;;;25.85;34.30
63351;BME280;64988;51.058;17.040;2023-03-22T07:38:12;99839.66;;;26.72;32.12
63351;BME280;64988;51.058;17.040;2023-03-22T07:43:40;99835.44;;;26.39;31.93
63351;BME280;64988;51.058;17.040;2023-03-22T07:49:22;99836.78;;;25.82;32.56
63351;BME280;64988;51.058;17.040;2023-03-22T07:55:04;99834.44;;;25.18;32.45
63351;BME280;64988;51.058;17.040;2023-03-22T08:00:32;99832.59;;;26.28;31.67
63351;BME280;64988;51.058;17.040;2023-03-22T08:06:32;99834.44;;;26.34;30.80
63351;BME280;64988;51.058;17.040;2023-03-22T08:12:00;99831.56;;;27.70;28.22
63351;BME280;64988;51.058;17.040;2023-03-22T08:17:27;99831.31;;;29.41;28.35
63351;BME280;64988;51.058;17.040;2023-03-22T08:22:56;99820.69;;;29.38;26.02
63351;BME280;64988;51.058;17.040;2023-03-22T08:28:26;99819.91;;;29.59;26.35
63351;BME280;64988;51.058;17.040;2023-03-22T08:33:53;99826.34;;;29.43;25.61
63351;BME280;64988;51.058;17.040;2023-03-22T08:39:22;99825.28;;;31.01;24.46
63351;BME280;64988;51.058;17.040;2023-03-22T08:45:09;99820.06;;;31.93;23.40
63351;BME280;64988;51.058;17.040;2023-03-22T08:50:43;99824.13;;;32.17;22.45
63351;BME280;64988;51.058;17.040;2023-03-22T08:56:20;99816.75;;;33.74;21.30
63351;BME280;64988;51.058;17.040;2023-03-22T09:02:01;99817.88;;;32.93;21.57
63351;BME280;64988;51.058;17.040;2023-03-22T09:07:30;99807.94;;;32.14;22.39
63351;BME280;64988;51.058;17.040;2023-03-22T09:13:15;99803.88;;;31.48;24.13
63351;BME280;64988;51.058;17.040;2023-03-22T09:18:49;99796.19;;;31.23;23.97
63351;BME280;64988;51.058;17.040;2023-03-22T09:24:19;99797.19;;;31.07;24.60
63351;BME280;64988;51.058;17.040;2023-03-22T09:29:52;99786.97;;;30.59;24.21
63351;BME280;64988;51.058;17.040;2023-03-22T09:35:20;99781.09;;;30.07;24.89
63351;BME280;64988;51.058;17.040;2023-03-22T09:41:04;99786.56;;;28.92;25.48
63351;BME280;64988;51.058;17.040;2023-03-22T09:46:38;99780.03;;;28.82;26.80
63351;BME280;64988;51.058;17.040;2023-03-22T09:52:12;99774.38;;;29.27;26.43
63351;BME280;64988;51.058;17.040;2023-03-22T09:57:40;99760.47;;;29.10;26.01
63351;BME280;64988;51.058;17.040;2023-03-22T10:03:18;99767.19;;;29.31;24.80
63351;BME280;64988;51.058;17.040;2023-03-22T10:20:43;99766.28;;;29.63;25.30
63351;BME280;64988;51.058;17.040;2023-03-22T10:26:32;99755.66;;;29.60;25.52
63351;BME280;64988;51.058;17.040;2023-03-22T10:32:29;99759.41;;;28.78;24.64
63351;BME280;64988;51.058;17.040;2023-03-22T10:38:01;99765.47;;;28.91;25.11
63351;BME280;64988;51.058;17.040;2023-03-22T10:43:37;99761.22;;;28.89;25.68
63351;BME280;64988;51.058;17.040;2023-03-22T10:49:05;99756.06;;;28.19;26.65
63351;BME280;64988;51.058;17.040;2023-03-22T10:54:35;99760.25;;;28.33;26.99
63351;BME280;64988;51.058;17.040;2023-03-22T11:00:05;99744.94;;;28.47;27.58
63351;BME280;64988;51.058;17.040;2023-03-22T11:05:39;99739.97;;;28.04;27.60
63351;BME280;64988;51.058;17.040;2023-03-22T11:11:16;99736.69;;;27.68;28.06
63351;BME280;64988;51.058;17.040;2023-03-22T11:22:46;99721.53;;;26.77;29.26
63351;BME280;64988;51.058;17.040;2023-03-22T11:28:20;99715.19;;;27.23;28.61
63351;BME280;64988;51.058;17.040;2023-03-22T11:33:59;99693.25;;;26.75;29.11
63351;BME280;64988;51.058;17.040;2023-03-22T11:39:27;99691.84;;;26.20;29.75
63351;BME280;64988;51.058;17.040;2023-03-22T11:44:55;99676.56;;;25.87;30.79
63351;BME280;64988;51.058;17.040;2023-03-22T11:55:55;99671.25;;;25.86;29.97
63351;BME280;64988;51.058;17.040;2023-03-22T12:01:32;99652.56;;;26.11;29.74
63351;BME280;64988;51.058;17.040;2023-03-22T12:07:05;99645.69;;;27.01;29.40
63351;BME280;64988;51.058;17.040;2023-03-22T12:12:52;99648.22;;;27.03;27.58
63351;BME280;64988;51.058;17.040;2023-03-22T12:18:35;99641.84;;;27.02;27.77
63351;BME280;64988;51.058;17.040;2023-03-22T12:24:15;99649.31;;;27.13;27.89
63351;BME280;64988;51.058;17.040;2023-03-22T12:29:57;99645.56;;;26.73;28.63
63351;BME280;64988;51.058;17.040;2023-03-22T12:35:29;99633.16;;;26.41;28.06
63351;BME280;64988;51.058;17.040;2023-03-22T12:41:01;99626.63;;;26.24;27.26
63351;BME280;64988;51.058;17.040;2023-03-22T12:46:39;99627.63;;;26.76;27.64
63351;BME280;64988;51.058;17.040;2023-03-22T12:57:38;99614.28;;;26.38;26.25
63351;BME280;64988;51.058;17.040;2023-03-22T13:03:19;99605.03;;;24.95;27.42
63351;BME280;64988;51.058;17.040;2023-03-22T13:09:49;99603.28;;;25.67;28.12
63351;BME280;64988;51.058;17.040;2023-03-22T13:15:00;99597.84;;;25.12;27.22
63351;BME280;64988;51.058;17.040;2023-03-22T13:20:31;99582.69;;;25.33;27.32
63351;BME280;64988;51.058;17.040;2023-03-22T13:26:03;99578.28;;;24.95;27.21
63351;BME280;64988;51.058;17.040;2023-03-22T13:31:42;99576.13;;;25.45;26.77
63351;BME280;64988;51.058;17.040;2023-03-22T13:37:23;99571.31;;;25.71;26.59
63351;BME280;64988;51.058;17.040;2023-03-22T14:00:00;99543.75;;;26.63;26.21
63351;BME280;64988;51.058;17.040;2023-03-22T14:05:43;99558.16;;;26.77;25.89
63351;BME280;64988;51.058;17.040;2023-03-22T14:11:51;99552.50;;;26.95;25.68
63351;BME280;64988;51.058;17.040;2023-03-22T14:17:33;99542.69;;;27.04;26.45
63351;BME280;64988;51.058;17.040;2023-03-22T14:23:06;99537.28;;;26.23;25.81
63351;BME280;64988;51.058;17.040;2023-03-22T14:28:37;99539.16;;;25.99;26.47
63351;BME280;64988;51.058;17.040;2023-03-22T14:34:10;99540.06;;;25.58;27.19
63351;BME280;64988;51.058;17.040;2023-03-22T14:39:38;99524.31;;;25.29;27.74
63351;BME280;64988;51.058;17.040;2023-03-22T14:45:06;99527.91;;;25.00;27.88
63351;BME280;64988;51.058;17.040;2023-03-22T14:50:33;99524.09;;;25.13;28.12
63351;BME280;64988;51.058;17.040;2023-03-22T14:56:06;99525.19;;;25.41;27.64
63351;BME280;64988;51.058;17.040;2023-03-22T15:01:48;99516.50;;;25.26;27.26
63351;BME280;64988;51.058;17.040;2023-03-22T15:07:20;99510.78;;;24.91;27.48
63351;BME280;64988;51.058;17.040;2023-03-22T15:12:48;99493.94;;;24.63;28.14
63351;BME280;64988;51.058;17.040;2023-03-22T15:18:18;99491.28;;;24.14;29.41
63351;BME280;64988;51.058;17.040;2023-03-22T15:23:53;99487.94;;;24.30;30.25
63351;BME280;64988;51.058;17.040;2023-03-22T15:29:24;99486.91;;;23.81;31.42
63351;BME280;64988;51.058;17.040;2023-03-22T15:34:53;99479.13;;;24.21;30.70
63351;BME280;64988;51.058;17.040;2023-03-22T15:40:39;99483.22;;;23.94;30.86
63351;BME280;64988;51.058;17.040;2023-03-22T15:46:19;99472.81;;;23.71;31.16
63351;BME280;64988;51.058;17.040;2023-03-22T15:51:47;99473.31;;;23.30;31.35
63351;BME280;64988;51.058;17.040;2023-03-22T15:57:24;99471.28;;;22.81;32.01
63351;BME280;64988;51.058;17.040;2023-03-22T16:03:13;99465.13;;;22.35;33.32
63351;BME280;64988;51.058;17.040;2023-03-22T16:08:38;99473.63;;;22.07;33.62
63351;BME280;64988;51.058;17.040;2023-03-22T16:14:04;99463.09;;;21.71;33.98
63351;BME280;64988;51.058;17.040;2023-03-22T16:19:31;99463.13;;;21.38;34.21
63351;BME280;64988;51.058;17.040;2023-03-22T16:24:57;99468.50;;;20.92;35.47
63351;BME280;64988;51.058;17.040;2023-03-22T16:30:25;99455.53;;;20.60;36.68
63351;BME280;64988;51.058;17.040;2023-03-22T16:35:51;99460.03;;;20.27;37.56
63351;BME280;64988;51.058;17.040;2023-03-22T16:41:23;99458.84;;;20.08;37.93
63351;BME280;64988;51.058;17.040;2023-03-22T16:46:50;99470.72;;;19.87;37.78
63351;BME280;64988;51.058;17.040;2023-03-22T16:52:19;99462.75;;;19.65;38.10
63351;BME280;64988;51.058;17.040;2023-03-22T16:57:47;99472.91;;;19.43;38.51
63351;BME280;64988;51.058;17.040;2023-03-22T17:03:16;99463.78;;;19.15;39.07
63351;BME280;64988;51.058;17.040;2023-03-22T17:08:46;99475.31;;;18.89;39.77
63351;BME280;64988;51.058;17.040;2023-03-22T17:14:12;99476.63;;;18.57;40.75
63351;BME280;64988;51.058;17.040;2023-03-22T17:19:38;99470.88;;;18.23;41.91
63351;BME280;64988;51.058;17.040;2023-03-22T17:25:04;99470.50;;;17.97;42.83
63351;BME280;64988;51.058;17.040;2023-03-22T17:30:31;99460.16;;;17.77;43.28
63351;BME280;64988;51.058;17.040;2023-03-22T17:35:59;99464.34;;;17.51;44.14
63351;BME280;64988;51.058;17.040;2023-03-22T17:41:26;99474.53;;;17.34;44.89
63351;BME280;64988;51.058;17.040;2023-03-22T17:46:52;99471.53;;;17.06;45.52
63351;BME280;64988;51.058;17.040;2023-03-22T17:52:18;99468.38;;;16.95;45.55
63351;BME280;64988;51.058;17.040;2023-03-22T17:57:44;99471.25;;;16.70;46.12
63351;BME280;64988;51.058;17.040;2023-03-22T18:03:11;99465.06;;;16.54;46.52
63351;BME280;64988;51.058;17.040;2023-03-22T18:08:38;99472.81;;;16.34;47.22
63351;BME280;64988;51.058;17.040;2023-03-22T18:14:04;99466.25;;;16.12;48.51
63351;BME280;64988;51.058;17.040;2023-03-22T18:19:30;99467.66;;;16.08;48.46
63351;BME280;64988;51.058;17.040;2023-03-22T18:24:57;99458.53;;;15.85;49.09
63351;BME280;64988;51.058;17.040;2023-03-22T18:30:23;99466.25;;;15.65;50.41
63351;BME280;64988;51.058;17.040;2023-03-22T18:35:53;99459.28;;;15.63;50.28
63351;BME280;64988;51.058;17.040;2023-03-22T18:41:20;99458.78;;;15.43;50.59
63351;BME280;64988;51.058;17.040;2023-03-22T18:46:47;99459.63;;;15.44;51.08
63351;BME280;64988;51.058;17.040;2023-03-22T18:52:13;99461.16;;;15.30;51.44
63351;BME280;64988;51.058;17.040;2023-03-22T18:57:39;99457.09;;;15.18;52.09
63351;BME280;64988;51.058;17.040;2023-03-22T19:03:05;99460.50;;;15.12;52.02
63351;BME280;64988;51.058;17.040;2023-03-22T19:08:31;99468.66;;;15.12;52.20
63351;BME280;64988;51.058;17.040;2023-03-22T19:13:58;99461.00;;;14.99;52.62
63351;BME280;64988;51.058;17.040;2023-03-22T19:19:25;99462.72;;;14.92;53.02
63351;BME280;64988;51.058;17.040;2023-03-22T19:24:52;99467.25;;;14.84;52.95
63351;BME280;64988;51.058;17.040;2023-03-22T19:30:19;99464.03;;;14.80;52.65
63351;BME280;64988;51.058;17.040;2023-03-22T19:35:49;99467.13;;;14.85;52.34
63351;BME280;64988;51.058;17.040;2023-03-22T19:41:19;99463.50;;;14.77;52.70
63351;BME280;64988;51.058;17.040;2023-03-22T19:46:45;99467.72;;;14.47;52.87
63351;BME280;64988;51.058;17.040;2023-03-22T19:52:14;99461.66;;;14.19;54.30
63351;BME280;64988;51.058;17.040;2023-03-22T19:57:44;99461.91;;;14.00;54.58
63351;BME280;64988;51.058;17.040;2023-03-22T20:03:10;99470.78;;;13.76;56.45
63351;BME280;64988;51.058;17.040;2023-03-22T20:08:38;99470.91;;;13.66;56.37
63351;BME280;64988;51.058;17.040;2023-03-22T20:14:05;99482.16;;;13.54;56.81
63351;BME280;64988;51.058;17.040;2023-03-22T20:19:33;99471.81;;;13.49;56.87
63351;BME280;64988;51.058;17.040;2023-03-22T20:24:59;99476.72;;;13.28;57.21
63351;BME280;64988;51.058;17.040;2023-03-22T20:30:26;99476.91;;;13.09;58.05
63351;BME280;64988;51.058;17.040;2023-03-22T20:35:54;99480.16;;;12.95;58.91
63351;BME280;64988;51.058;17.040;2023-03-22T20:41:21;99472.19;;;12.93;59.20
63351;BME280;64988;51.058;17.040;2023-03-22T20:46:47;99466.94;;;12.92;59.39
63351;BME280;64988;51.058;17.040;2023-03-22T20:52:14;99463.50;;;12.90;59.82
63351;BME280;64988;51.058;17.040;2023-03-22T20:57:40;99465.84;;;12.85;59.69
63351;BME280;64988;51.058;17.040;2023-03-22T21:03:06;99464.75;;;12.78;59.70
63351;BME280;64988;51.058;17.040;2023-03-22T21:08:32;99473.66;;;12.70;60.51
63351;BME280;64988;51.058;17.040;2023-03-22T21:14:01;99470.50;;;12.75;59.95
63351;BME280;64988;51.058;17.040;2023-03-22T21:19:27;99469.09;;;12.53;61.04
63351;BME280;64988;51.058;17.040;2023-03-22T21:24:54;99465.44;;;12.44;60.18
63351;BME280;64988;51.058;17.040;2023-03-22T21:30:20;99469.91;;;12.36;60.63
63351;BME280;64988;51.058;17.040;2023-03-22T21:35:50;99474.34;;;12.37;61.33
63351;BME280;64988;51.058;17.040;2023-03-22T21:41:24;99472.47;;;12.37;60.62
63351;BME280;64988;51.058;17.040;2023-03-22T21:46:50;99489.47;;;12.30;60.43
63351;BME280;64988;51.058;17.040;2023-03-22T21:52:16;99512.50;;;12.06;61.93
63351;BME280;64988;51.058;17.040;2023-03-22T21:57:42;99507.75;;;12.18;61.13
63351;BME280;64988;51.058;17.040;2023-03-22T22:03:08;99505.88;;;12.19;61.21
63351;BME280;64988;51.058;17.040;2023-03-22T22:08:35;99502.13;;;12.29;60.53
63351;BME280;64988;51.058;17.040;2023-03-22T22:14:03;99514.25;;;12.25;60.71
63351;BME280;64988;51.058;17.040;2023-03-22T22:19:30;99520.22;;;12.29;60.69
63351;BME280;64988;51.058;17.040;2023-03-22T22:24:56;99515.00;;;12.45;60.44
63351;BME280;64988;51.058;17.040;2023-03-22T22:30:22;99514.31;;;12.60;59.85
63351;BME280;64988;51.058;17.040;2023-03-22T22:35:48;99515.66;;;12.56;59.35
63351;BME280;64988;51.058;17.040;2023-03-22T22:41:16;99507.91;;;12.44;58.88
63351;BME280;64988;51.058;17.040;2023-03-22T22:46:43;99514.06;;;12.36;59.46
63351;BME280;64988;51.058;17.040;2023-03-22T22:52:09;99511.66;;;12.33;59.73
63351;BME280;64988;51.058;17.040;2023-03-22T22:57:36;99512.22;;;12.37;59.18
63351;BME280;64988;51.058;17.040;2023-03-22T23:03:02;99520.88;;;12.40;59.80
63351;BME280;64988;51.058;17.040;2023-03-22T23:08:28;99517.88;;;12.43;59.35
63351;BME280;64988;51.058;17.040;2023-03-22T23:13:54;99510.38;;;12.55;58.84
63351;BME280;64988;51.058;17.040;2023-03-22T23:19:22;99503.44;;;12.52;58.50
63351;BME280;64988;51.058;17.040;2023-03-22T23:24:51;99511.25;;;12.55;59.27
63351;BME280;64988;51.058;17.040;2023-03-22T23:30:18;99502.69;;;12.60;58.61
63351;BME280;64988;51.058;17.040;2023-03-22T23:35:44;99500.72;;;12.52;58.90
63351;BME280;64988;51.058;17.040;2023-03-22T23:41:16;99495.63;;;12.49;59.43
63351;BME280;64988;51.058;17.040;2023-03-22T23:46:44;99505.41;;;12.50;58.53
63351;BME280;64988;51.058;17.040;2023-03-22T23:52:10;99505.28;;;12.52;58.92
63351;BME280;64988;51.058;17.040;2023-03-22T23:57:36;99501.66;;;12.61;58.98
